BSXR EHAM-EDDH
Flight info
| Callsign | BSXR |
|---|---|
| Flight time | 0h 37m |
| Altitude | 37000 |
| Route | NOPSU3W ANDIK M105 RIBSO RIBSO7A |
| Aircraft | C25C/M-SDE2E3FGHRWXY/LB1 |
Departure
| Time | 2026-05-06 11:45 |
|---|---|
| Airport | Amsterdam Airport Schiphol (EHAM) |
Arrival
| Time | 2026-05-06 12:22 |
|---|---|
| Airport | Hamburg Helmut Schmidt Airport (EDDH) |
| Time | Latitude | Longitude | Altitude | Speed | Heading |
|---|---|---|---|---|---|
| 2026-05-06 11:31 | 52.30988 | 4.74387 | 84 ft | 0 kts | 273° |
| 2026-05-06 11:37 | 52.30988 | 4.74403 | 0 ft | 2 kts | 273° |
| 2026-05-06 11:37 | 52.30987 | 4.74430 | -1 ft | 3 kts | 273° |
| 2026-05-06 11:37 | 52.30986 | 4.74458 | -1 ft | 3 kts | 273° |
| 2026-05-06 11:38 | 52.30985 | 4.74486 | -2 ft | 2 kts | 273° |
| 2026-05-06 11:38 | 52.30984 | 4.74512 | -2 ft | 2 kts | 273° |
| 2026-05-06 11:38 | 52.30984 | 4.74537 | -1 ft | 2 kts | 273° |
| 2026-05-06 11:38 | 52.30983 | 4.74563 | -1 ft | 2 kts | 273° |
| 2026-05-06 11:39 | 52.30982 | 4.74578 | -2 ft | 0 kts | 273° |
| 2026-05-06 11:39 | 52.30983 | 4.74568 | -2 ft | 4 kts | 285° |
| 2026-05-06 11:39 | 52.30990 | 4.74559 | -1 ft | 0 kts | 347° |
| 2026-05-06 11:42 | 52.31037 | 4.74556 | -2 ft | 25 kts | 8° |
| 2026-05-06 11:42 | 52.31203 | 4.74577 | 0 ft | 27 kts | 4° |
| 2026-05-06 11:43 | 52.31363 | 4.74584 | 4 ft | 29 kts | 345° |
| 2026-05-06 11:43 | 52.31393 | 4.74376 | 4 ft | 31 kts | 259° |
| 2026-05-06 11:43 | 52.31321 | 4.74116 | 8 ft | 21 kts | 176° |
| 2026-05-06 11:44 | 52.30774 | 4.74076 | 5 ft | 39 kts | 183° |
| 2026-05-06 11:44 | 52.30510 | 4.74056 | 8 ft | 37 kts | 184° |
| 2026-05-06 11:44 | 52.30406 | 4.73859 | 8 ft | 28 kts | 280° |
| 2026-05-06 11:44 | 52.30440 | 4.73750 | 8 ft | 3 kts | 3° |
| 2026-05-06 11:45 | 52.30628 | 4.73777 | 7 ft | 68 kts | 7° |
| 2026-05-06 11:45 | 52.31421 | 4.73876 | 189 ft | 149 kts | 9° |
| 2026-05-06 11:45 | 52.32585 | 4.74107 | 384 ft | 168 kts | 10° |
| 2026-05-06 11:45 | 52.33836 | 4.74453 | 1017 ft | 188 kts | 20° |
| 2026-05-06 11:46 | 52.34942 | 4.75228 | 3293 ft | 164 kts | 21° |
| 2026-05-06 11:46 | 52.36009 | 4.75832 | 5212 ft | 166 kts | 21° |
| 2026-05-06 11:46 | 52.37146 | 4.76531 | 6739 ft | 183 kts | 18° |
| 2026-05-06 11:46 | 52.38247 | 4.77637 | 8267 ft | 194 kts | 48° |
| 2026-05-06 11:47 | 52.39190 | 4.79287 | 9850 ft | 202 kts | 40° |
| 2026-05-06 11:47 | 52.40271 | 4.80839 | 11304 ft | 210 kts | 38° |
| 2026-05-06 11:47 | 52.41446 | 4.82383 | 12515 ft | 234 kts | 38° |
| 2026-05-06 11:47 | 52.42834 | 4.84240 | 12935 ft | 288 kts | 38° |
| 2026-05-06 11:48 | 52.44549 | 4.86572 | 12925 ft | 348 kts | 39° |
| 2026-05-06 11:48 | 52.46533 | 4.89291 | 12939 ft | 394 kts | 39° |
| 2026-05-06 11:48 | 52.48737 | 4.92309 | 12948 ft | 428 kts | 39° |
| 2026-05-06 11:48 | 52.51064 | 4.95496 | 13574 ft | 435 kts | 39° |
| 2026-05-06 11:49 | 52.53401 | 4.98689 | 14199 ft | 441 kts | 39° |
| 2026-05-06 11:49 | 52.55769 | 5.01955 | 14785 ft | 445 kts | 39° |
| 2026-05-06 11:49 | 52.72756 | 5.25449 | 18164 ft | 475 kts | 40° |
| 2026-05-06 11:49 | 52.90440 | 5.50085 | 20403 ft | 492 kts | 40° |
| 2026-05-06 11:50 | 52.93005 | 5.53708 | 21854 ft | 466 kts | 40° |
| 2026-05-06 11:50 | 52.95515 | 5.56746 | 23409 ft | 445 kts | 27° |
| 2026-05-06 11:50 | 52.98409 | 5.58649 | 24835 ft | 425 kts | 15° |
| 2026-05-06 11:50 | 53.11042 | 5.55339 | 32594 ft | 284 kts | 318° |
| 2026-05-06 11:51 | 53.12422 | 5.53351 | 34020 ft | 244 kts | 301° |
| 2026-05-06 11:51 | 53.13303 | 5.51119 | 34766 ft | 224 kts | 283° |
| 2026-05-06 11:51 | 53.21124 | 5.36871 | 36949 ft | 328 kts | 330° |
| 2026-05-06 11:51 | 53.43264 | 5.35286 | 36985 ft | 463 kts | 14° |
| 2026-05-06 11:52 | 53.65231 | 5.59671 | 36974 ft | 475 kts | 51° |
| 2026-05-06 11:52 | 53.74260 | 5.98750 | 36961 ft | 434 kts | 91° |
| 2026-05-06 11:52 | 53.67416 | 6.35188 | 36966 ft | 417 kts | 134° |
| 2026-05-06 11:52 | 53.33719 | 6.79312 | 36992 ft | 454 kts | 149° |
| 2026-05-06 11:53 | 53.24540 | 6.90428 | 36920 ft | 459 kts | 144° |
| 2026-05-06 11:53 | 53.19897 | 6.97716 | 36915 ft | 461 kts | 135° |
| 2026-05-06 11:54 | 53.13111 | 7.17899 | 36892 ft | 384 kts | 109° |
| 2026-05-06 11:54 | 53.12468 | 7.29506 | 36905 ft | 420 kts | 95° |
| 2026-05-06 11:54 | 53.12913 | 7.36287 | 36911 ft | 440 kts | 79° |
| 2026-05-06 11:54 | 53.13874 | 7.41191 | 36912 ft | 452 kts | 69° |
| 2026-05-06 11:55 | 53.15349 | 7.45873 | 36919 ft | 461 kts | 58° |
| 2026-05-06 11:55 | 53.17064 | 7.50421 | 36931 ft | 467 kts | 63° |
| 2026-05-06 11:55 | 53.19401 | 7.60620 | 36930 ft | 475 kts | 75° |
| 2026-05-06 11:56 | 53.21600 | 7.71037 | 36925 ft | 462 kts | 68° |
| 2026-05-06 11:56 | 53.22873 | 7.75791 | 36911 ft | 436 kts | 68° |
| 2026-05-06 11:56 | 53.24001 | 7.80360 | 36630 ft | 419 kts | 71° |
| 2026-05-06 11:57 | 53.25006 | 7.84888 | 36089 ft | 406 kts | 73° |
| 2026-05-06 11:57 | 53.26002 | 7.89275 | 35436 ft | 404 kts | 71° |
| 2026-05-06 11:57 | 53.27047 | 7.93567 | 34810 ft | 404 kts | 71° |
| 2026-05-06 11:57 | 53.28092 | 7.97923 | 34198 ft | 403 kts | 72° |
| 2026-05-06 11:58 | 53.29111 | 8.02276 | 33543 ft | 402 kts | 73° |
| 2026-05-06 11:58 | 53.30118 | 8.06627 | 32860 ft | 401 kts | 73° |
| 2026-05-06 11:58 | 53.31111 | 8.10982 | 32191 ft | 400 kts | 73° |
| 2026-05-06 11:58 | 53.32095 | 8.15324 | 31545 ft | 398 kts | 71° |
| 2026-05-06 11:59 | 53.33142 | 8.19601 | 30920 ft | 396 kts | 70° |
| 2026-05-06 11:59 | 53.34175 | 8.23864 | 30303 ft | 393 kts | 69° |
| 2026-05-06 11:59 | 53.35251 | 8.28061 | 29623 ft | 391 kts | 68° |
| 2026-05-06 11:59 | 53.36331 | 8.32206 | 28924 ft | 388 kts | 68° |
| 2026-05-06 12:00 | 53.37370 | 8.36235 | 28259 ft | 384 kts | 68° |
| 2026-05-06 12:00 | 53.38424 | 8.40327 | 27599 ft | 381 kts | 68° |
| 2026-05-06 12:00 | 53.39466 | 8.44400 | 26940 ft | 378 kts | 68° |
| 2026-05-06 12:00 | 53.40504 | 8.48423 | 26302 ft | 375 kts | 68° |
| 2026-05-06 12:01 | 53.41541 | 8.52402 | 25684 ft | 372 kts | 68° |
| 2026-05-06 12:01 | 53.42559 | 8.56368 | 25086 ft | 368 kts | 68° |
| 2026-05-06 12:01 | 53.43556 | 8.60299 | 24497 ft | 365 kts | 68° |
| 2026-05-06 12:01 | 53.44543 | 8.64205 | 23901 ft | 363 kts | 68° |
| 2026-05-06 12:02 | 53.45533 | 8.68082 | 23300 ft | 360 kts | 68° |
| 2026-05-06 12:02 | 53.46507 | 8.71934 | 22612 ft | 358 kts | 68° |
| 2026-05-06 12:02 | 53.47480 | 8.75764 | 21941 ft | 355 kts | 68° |
| 2026-05-06 12:02 | 53.48436 | 8.79571 | 21288 ft | 352 kts | 68° |
| 2026-05-06 12:03 | 53.49393 | 8.83344 | 20643 ft | 350 kts | 68° |
| 2026-05-06 12:03 | 53.50332 | 8.87093 | 20021 ft | 347 kts | 68° |
| 2026-05-06 12:03 | 53.51273 | 8.90817 | 19411 ft | 345 kts | 68° |
| 2026-05-06 12:03 | 53.52196 | 8.94517 | 18814 ft | 342 kts | 68° |
| 2026-05-06 12:04 | 53.53119 | 8.98180 | 18231 ft | 339 kts | 68° |
| 2026-05-06 12:04 | 53.53839 | 9.01935 | 17566 ft | 336 kts | 79° |
| 2026-05-06 12:04 | 53.54230 | 9.05786 | 16913 ft | 333 kts | 82° |
| 2026-05-06 12:04 | 53.54569 | 9.09623 | 16275 ft | 331 kts | 82° |
| 2026-05-06 12:05 | 53.55009 | 9.13405 | 15653 ft | 329 kts | 77° |
| 2026-05-06 12:05 | 53.55528 | 9.17145 | 15029 ft | 327 kts | 78° |
| 2026-05-06 12:05 | 53.56300 | 9.20647 | 14417 ft | 325 kts | 55° |
| 2026-05-06 12:05 | 53.57996 | 9.23086 | 13813 ft | 322 kts | 27° |
| 2026-05-06 12:06 | 53.60078 | 9.24381 | 13167 ft | 318 kts | 12° |
| 2026-05-06 12:06 | 53.62235 | 9.25186 | 12518 ft | 316 kts | 11° |
| 2026-05-06 12:06 | 53.64369 | 9.26031 | 11887 ft | 315 kts | 13° |
| 2026-05-06 12:06 | 53.66469 | 9.27065 | 11262 ft | 314 kts | 15° |
| 2026-05-06 12:07 | 53.68548 | 9.28066 | 10932 ft | 304 kts | 13° |
| 2026-05-06 12:07 | 53.70571 | 9.29016 | 10913 ft | 300 kts | 13° |
| 2026-05-06 12:07 | 53.72575 | 9.29935 | 10911 ft | 298 kts | 13° |
| 2026-05-06 12:07 | 53.74566 | 9.30873 | 10909 ft | 296 kts | 14° |
| 2026-05-06 12:08 | 53.76544 | 9.31797 | 10906 ft | 294 kts | 13° |
| 2026-05-06 12:08 | 53.78478 | 9.32926 | 10893 ft | 296 kts | 29° |
| 2026-05-06 12:08 | 53.79868 | 9.35462 | 10901 ft | 298 kts | 58° |
| 2026-05-06 12:08 | 53.80566 | 9.38720 | 10892 ft | 297 kts | 85° |
| 2026-05-06 12:09 | 53.80367 | 9.42183 | 10660 ft | 301 kts | 107° |
| 2026-05-06 12:09 | 53.79283 | 9.45225 | 10040 ft | 307 kts | 136° |
| 2026-05-06 12:09 | 53.77524 | 9.47251 | 9409 ft | 309 kts | 160° |
| 2026-05-06 12:09 | 53.75413 | 9.47760 | 8750 ft | 310 kts | 186° |
| 2026-05-06 12:10 | 53.73338 | 9.46839 | 8128 ft | 309 kts | 208° |
| 2026-05-06 12:10 | 53.71503 | 9.45010 | 7495 ft | 299 kts | 211° |
| 2026-05-06 12:10 | 53.69627 | 9.43864 | 6974 ft | 280 kts | 184° |
| 2026-05-06 12:10 | 53.67803 | 9.44067 | 6915 ft | 247 kts | 171° |
| 2026-05-06 12:11 | 53.66220 | 9.44684 | 6904 ft | 221 kts | 167° |
| 2026-05-06 12:11 | 53.64673 | 9.45316 | 6900 ft | 235 kts | 167° |
| 2026-05-06 12:11 | 53.63056 | 9.45953 | 6901 ft | 243 kts | 168° |
| 2026-05-06 12:11 | 53.61217 | 9.46648 | 6913 ft | 296 kts | 166° |
| 2026-05-06 12:12 | 53.59228 | 9.47426 | 6917 ft | 290 kts | 167° |
| 2026-05-06 12:12 | 53.57269 | 9.48169 | 6914 ft | 287 kts | 166° |
| 2026-05-06 12:12 | 53.55332 | 9.48928 | 6910 ft | 285 kts | 167° |
| 2026-05-06 12:12 | 53.53422 | 9.49649 | 6913 ft | 285 kts | 167° |
| 2026-05-06 12:13 | 53.51456 | 9.50334 | 6904 ft | 284 kts | 175° |
| 2026-05-06 12:13 | 53.49598 | 9.49540 | 6890 ft | 285 kts | 211° |
| 2026-05-06 12:13 | 53.48116 | 9.47339 | 6921 ft | 283 kts | 228° |
| 2026-05-06 12:13 | 53.46872 | 9.44760 | 6993 ft | 280 kts | 231° |
| 2026-05-06 12:14 | 53.45665 | 9.42204 | 6420 ft | 274 kts | 230° |
| 2026-05-06 12:14 | 53.44449 | 9.39890 | 5788 ft | 263 kts | 227° |
| 2026-05-06 12:14 | 53.43247 | 9.37633 | 5165 ft | 261 kts | 228° |
| 2026-05-06 12:14 | 53.42015 | 9.35421 | 5021 ft | 256 kts | 217° |
| 2026-05-06 12:15 | 53.40403 | 9.34547 | 5011 ft | 242 kts | 176° |
| 2026-05-06 12:15 | 53.38792 | 9.35068 | 5013 ft | 232 kts | 155° |
| 2026-05-06 12:15 | 53.37520 | 9.36627 | 4983 ft | 226 kts | 133° |
| 2026-05-06 12:15 | 53.36558 | 9.38715 | 4895 ft | 226 kts | 119° |
| 2026-05-06 12:16 | 53.35972 | 9.41120 | 4889 ft | 222 kts | 103° |
| 2026-05-06 12:16 | 53.36038 | 9.43618 | 4885 ft | 218 kts | 68° |
| 2026-05-06 12:16 | 53.37336 | 9.47254 | 4884 ft | 213 kts | 51° |
| 2026-05-06 12:16 | 53.39446 | 9.51268 | 4882 ft | 207 kts | 53° |
| 2026-05-06 12:17 | 53.42105 | 9.56600 | 4881 ft | 175 kts | 51° |
| 2026-05-06 12:17 | 53.43827 | 9.60059 | 4860 ft | 175 kts | 51° |
| 2026-05-06 12:17 | 53.46560 | 9.65598 | 4885 ft | 264 kts | 50° |
| 2026-05-06 12:17 | 53.47595 | 9.67625 | 4870 ft | 219 kts | 51° |
| 2026-05-06 12:18 | 53.48701 | 9.69885 | 4870 ft | 264 kts | 51° |
| 2026-05-06 12:18 | 53.49856 | 9.72210 | 4864 ft | 255 kts | 51° |
| 2026-05-06 12:18 | 53.50963 | 9.74445 | 4862 ft | 244 kts | 50° |
| 2026-05-06 12:18 | 53.52007 | 9.76493 | 4857 ft | 219 kts | 51° |
| 2026-05-06 12:19 | 53.52969 | 9.78444 | 4848 ft | 215 kts | 51° |
| 2026-05-06 12:19 | 53.53907 | 9.80341 | 4847 ft | 201 kts | 52° |
| 2026-05-06 12:19 | 53.54754 | 9.82043 | 4844 ft | 179 kts | 51° |
| 2026-05-06 12:19 | 53.55508 | 9.83576 | 4842 ft | 162 kts | 52° |
| 2026-05-06 12:20 | 53.56239 | 9.85050 | 4846 ft | 167 kts | 52° |
| 2026-05-06 12:20 | 53.56987 | 9.86567 | 4845 ft | 167 kts | 51° |
| 2026-05-06 12:20 | 53.57686 | 9.87985 | 4842 ft | 148 kts | 52° |
| 2026-05-06 12:20 | 53.58317 | 9.89254 | 4804 ft | 137 kts | 51° |
| 2026-05-06 12:21 | 53.58909 | 9.90472 | 4633 ft | 133 kts | 53° |
| 2026-05-06 12:21 | 53.59502 | 9.91702 | 2752 ft | 155 kts | 52° |
| 2026-05-06 12:21 | 53.60148 | 9.92999 | 1141 ft | 139 kts | 50° |
| 2026-05-06 12:21 | 53.60734 | 9.94147 | 658 ft | 112 kts | 52° |
| 2026-05-06 12:22 | 53.61197 | 9.95109 | 401 ft | 104 kts | 51° |
| 2026-05-06 12:22 | 53.61676 | 9.96067 | 221 ft | 107 kts | 52° |
| 2026-05-06 12:22 | 53.62144 | 9.97027 | 48 ft | 107 kts | 51° |
| 2026-05-06 12:22 | 53.62476 | 9.97703 | 34 ft | 31 kts | 63° |
| 2026-05-06 12:23 | 53.62435 | 9.97847 | 34 ft | 0 kts | 107° |
| 2026-05-06 12:24 | 53.62423 | 9.97942 | 34 ft | 10 kts | 74° |
| 2026-05-06 12:24 | 53.62465 | 9.98088 | 35 ft | 17 kts | 62° |
| 2026-05-06 12:24 | 53.62549 | 9.98267 | 35 ft | 19 kts | 51° |
| 2026-05-06 12:24 | 53.62628 | 9.98426 | 36 ft | 17 kts | 50° |
| 2026-05-06 12:25 | 53.62697 | 9.98570 | 36 ft | 15 kts | 50° |
| 2026-05-06 12:25 | 53.62761 | 9.98698 | 36 ft | 14 kts | 50° |
| 2026-05-06 12:25 | 53.62819 | 9.98814 | 36 ft | 12 kts | 49° |
| 2026-05-06 12:25 | 53.62850 | 9.98882 | 36 ft | 3 kts | 76° |
| 2026-05-06 12:26 | 53.62784 | 9.98974 | 37 ft | 17 kts | 150° |
| 2026-05-06 12:26 | 53.62779 | 9.99024 | 37 ft | 10 kts | 46° |
| 2026-05-06 12:26 | 53.62807 | 9.99086 | 37 ft | 8 kts | 56° |